HVS weather

Vertientes Heliport
Miguel Hidalgo, Distrito Federal, Mexico

Public forecast

Using degrees Celsius for public forecast. Weather courtesy of forecast.io.

METAR (pilot weather report)

Closest report is Licenciado Benito Juarez International Airport, 9.2 nm (17.0 km) E. Retrieved 2019/06/25 09:44 UTC (11 minutes ago):

MMMX 250944Z 11004KT 12SM SCT025 BKN080 15/13 A3029 NOSIG RMK 8/570

TAF (pilot weather forecast)

Closest forecast is Licenciado Benito Juarez International Airport, 9.2 nm (17.0 km) E. Retrieved 2019/06/25 06:27 UTC (3 hours ago):

TAF MMMX 250425Z 2506/2612 24004KT P6SM SCT020 SCT080 BKN200 TX23/2521Z TN15/2512Z FM251200 00000KT 6SM HZ SCT020 BKN080 BKN200 FM251800 10010KT P6SM BKN020 OVC080 BECMG 2521/2523 5SM -RA TEMPO 2523/2603 4SM TSRA BKN020CB FM260800 02005KT P6SM SCT025 BKN090 BKN220